Time;durP1;ratioP1;P1;durP2;ratioP2;P2;SDS_P1;SDS_P2;PMS_P1;PMS_P2;Temp;Humidity;BMP_temperature;BMP_pressure;BME280_temperature;BME280_humidity;BME280_pressure;Samples;Min_cycle;Max_cycle;Signal;HPM_P1;HPM_P2
2022/11/09 00:00:49;;;;;;;21.75;3.95;;;;;;;;;;4970851;28;20034;-81
2022/11/09 00:03:36;;;;;;;37.67;8.32;;;;;;;;;;4964873;28;20047;-81
2022/11/09 00:06:24;;;;;;;49.30;12.45;;;;;;;;;;4924377;28;20530;-80
2022/11/09 00:09:21;;;;;;;32.35;9.10;;;;;;;;;;4929386;28;20035;-80
2022/11/09 00:11:56;;;;;;;24.00;8.77;;;;;;;;;;4926680;28;20302;-81
2022/11/09 00:14:21;;;;;;;38.72;9.02;;;;;;;;;;4992129;28;20487;-81
2022/11/09 00:16:56;;;;;;;28.60;7.95;;;;;;;;;;4968661;28;20046;-81
2022/11/09 00:19:25;;;;;;;38.70;8.20;;;;;;;;;;4975359;28;20034;-81
2022/11/09 00:21:54;;;;;;;46.30;8.52;;;;;;;;;;4944340;28;20086;-81
2022/11/09 00:24:23;;;;;;;33.42;9.30;;;;;;;;;;4963985;28;20034;-81
2022/11/09 00:26:49;;;;;;;50.85;9.77;;;;;;;;;;4956945;28;20092;-82
2022/11/09 00:29:15;;;;;;;51.38;10.50;;;;;;;;;;4967793;28;20072;-84
2022/11/09 00:31:44;;;;;;;40.92;9.43;;;;;;;;;;4918716;28;20104;-82
2022/11/09 00:34:26;;;;;;;48.92;12.65;;;;;;;;;;4970065;28;20044;-82
2022/11/09 00:36:54;;;;;;;43.70;11.02;;;;;;;;;;4969502;28;20068;-82
2022/11/09 00:39:38;;;;;;;40.63;10.27;;;;;;;;;;4991019;28;20088;-83
2022/11/09 00:42:10;;;;;;;48.50;9.57;;;;;;;;;;4947137;28;20030;-81
2022/11/09 00:44:39;;;;;;;50.85;7.85;;;;;;;;;;4946829;28;20497;-83
2022/11/09 00:47:04;;;;;;;50.35;8.93;;;;;;;;;;4935949;28;20042;-82
2022/11/09 00:49:30;;;;;;;45.17;8.93;;;;;;;;;;4965210;28;20537;-83
2022/11/09 00:51:59;;;;;;;36.10;8.77;;;;;;;;;;4951544;28;20130;-81
2022/11/09 00:54:39;;;;;;;31.27;8.02;;;;;;;;;;4961427;28;20042;-82
2022/11/09 00:57:12;;;;;;;21.05;6.13;;;;;;;;;;4994332;28;20026;-81
2022/11/09 00:59:52;;;;;;;24.38;5.72;;;;;;;;;;4973947;28;20040;-81
2022/11/09 01:02:27;;;;;;;19.45;5.50;;;;;;;;;;4985684;28;20517;-81
2022/11/09 01:05:04;;;;;;;20.60;6.68;;;;;;;;;;4958741;28;20122;-80
2022/11/09 01:07:39;;;;;;;17.42;5.95;;;;;;;;;;4888491;28;20046;-82
2022/11/09 01:10:25;;;;;;;17.17;6.30;;;;;;;;;;4947313;28;21065;-81
2022/11/09 01:12:53;;;;;;;19.73;5.13;;;;;;;;;;4972618;28;20491;-82
2022/11/09 01:15:18;;;;;;;18.83;4.93;;;;;;;;;;4938079;28;20026;-82
2022/11/09 01:17:50;;;;;;;32.80;6.32;;;;;;;;;;4944659;28;20035;-82
2022/11/09 01:20:17;;;;;;;19.95;4.95;;;;;;;;;;4916505;28;20044;-82
2022/11/09 01:22:46;;;;;;;17.65;4.60;;;;;;;;;;4954678;28;20038;-82
2022/11/09 01:25:12;;;;;;;19.20;6.10;;;;;;;;;;4970633;28;20023;-83
2022/11/09 01:27:40;;;;;;;22.13;5.22;;;;;;;;;;4970507;28;20026;-84
2022/11/09 01:30:09;;;;;;;21.23;5.95;;;;;;;;;;4975306;28;20038;-81
2022/11/09 01:32:35;;;;;;;23.45;6.13;;;;;;;;;;4961975;28;20061;-81
2022/11/09 01:35:00;;;;;;;21.90;4.95;;;;;;;;;;4959905;28;20364;-79
2022/11/09 01:37:26;;;;;;;31.83;7.28;;;;;;;;;;4909401;28;20304;-78
2022/11/09 01:39:57;;;;;;;32.80;8.07;;;;;;;;;;4912082;28;20044;-77
2022/11/09 01:42:34;;;;;;;41.95;10.75;;;;;;;;;;4870615;28;20038;-80
2022/11/09 01:45:20;;;;;;;27.58;7.95;;;;;;;;;;4951178;28;20093;-82
2022/11/09 01:47:59;;;;;;;22.40;7.20;;;;;;;;;;4934831;28;20042;-81
2022/11/09 01:50:44;;;;;;;21.60;5.90;;;;;;;;;;4908215;28;20257;-77
2022/11/09 01:53:31;;;;;;;20.33;5.07;;;;;;;;;;4883187;28;20639;-77
2022/11/09 01:56:04;;;;;;;18.52;3.72;;;;;;;;;;4853260;28;20032;-79
2022/11/09 01:58:35;;;;;;;21.55;3.35;;;;;;;;;;4882105;28;20648;-78
2022/11/09 02:01:32;;;;;;;;;;;;;;;;;;;;;
2022/11/09 02:04:06;;;;;;;24.25;4.03;;;;;;;;;;4909967;28;20821;-82
2022/11/09 02:06:45;;;;;;;21.95;3.65;;;;;;;;;;4900878;28;20035;-83
2022/11/09 02:09:15;;;;;;;29.65;3.40;;;;;;;;;;4940234;28;20561;-84
2022/11/09 02:11:44;;;;;;;21.80;3.63;;;;;;;;;;4898384;28;20138;-83
2022/11/09 02:14:13;;;;;;;22.35;3.90;;;;;;;;;;4936945;28;20057;-81
2022/11/09 02:16:39;;;;;;;30.92;3.60;;;;;;;;;;4919910;28;20440;-80
2022/11/09 02:19:11;;;;;;;26.70;3.53;;;;;;;;;;4900060;28;20071;-83
2022/11/09 02:21:36;;;;;;;27.85;4.38;;;;;;;;;;4902210;28;20037;-83
2022/11/09 02:24:02;;;;;;;26.58;4.50;;;;;;;;;;4941541;28;20035;-82
2022/11/09 02:26:30;;;;;;;29.00;4.82;;;;;;;;;;4979867;28;20031;-82
2022/11/09 02:28:57;;;;;;;26.42;4.55;;;;;;;;;;4987227;28;20035;-82
2022/11/09 02:31:30;;;;;;;33.47;5.25;;;;;;;;;;4961341;28;20461;-81
2022/11/09 02:34:02;;;;;;;25.42;4.80;;;;;;;;;;4928668;28;20178;-81
2022/11/09 02:36:36;;;;;;;25.20;4.07;;;;;;;;;;4938231;28;20147;-80
2022/11/09 02:39:03;;;;;;;22.17;3.78;;;;;;;;;;4952722;28;20053;-76
2022/11/09 02:41:35;;;;;;;25.83;4.25;;;;;;;;;;4917065;28;20054;-76
2022/11/09 02:44:01;;;;;;;21.55;3.55;;;;;;;;;;4919647;28;20288;-76
2022/11/09 02:46:40;;;;;;;26.92;4.35;;;;;;;;;;4909475;28;20113;-77
2022/11/09 02:49:08;;;;;;;27.25;5.00;;;;;;;;;;4922253;28;20944;-77
2022/11/09 02:51:51;;;;;;;27.05;4.47;;;;;;;;;;4897349;28;20508;-82
2022/11/09 02:54:20;;;;;;;25.42;4.30;;;;;;;;;;4945541;28;20086;-80
2022/11/09 02:56:45;;;;;;;23.42;4.82;;;;;;;;;;4947566;28;20069;-77
2022/11/09 02:59:13;;;;;;;19.55;4.28;;;;;;;;;;4920153;28;20069;-82
2022/11/09 03:01:42;;;;;;;20.80;4.23;;;;;;;;;;4970400;28;20031;-81
2022/11/09 03:04:07;;;;;;;37.63;5.30;;;;;;;;;;4966989;28;20802;-84
2022/11/09 03:06:37;;;;;;;26.50;4.60;;;;;;;;;;4974865;28;20035;-81
2022/11/09 03:09:06;;;;;;;15.10;2.60;;;;;;;;;;4934823;28;20053;-82
2022/11/09 03:11:42;;;;;;;25.63;4.45;;;;;;;;;;4930606;28;20121;-82
2022/11/09 03:14:16;;;;;;;30.50;4.28;;;;;;;;;;4947528;28;20103;-83
2022/11/09 03:16:48;;;;;;;27.17;4.43;;;;;;;;;;4917526;28;20456;-82
2022/11/09 03:19:25;;;;;;;24.05;4.03;;;;;;;;;;4914022;28;20435;-81
2022/11/09 03:21:53;;;;;;;29.20;4.75;;;;;;;;;;4921969;28;20210;-82
2022/11/09 03:24:19;;;;;;;30.48;4.75;;;;;;;;;;4950734;28;20114;-82
2022/11/09 03:26:45;;;;;;;35.22;5.10;;;;;;;;;;4939420;28;20961;-84
2022/11/09 03:29:11;;;;;;;19.65;3.35;;;;;;;;;;4944756;28;20031;-81
2022/11/09 03:31:38;;;;;;;30.00;3.75;;;;;;;;;;4965332;28;20511;-86
2022/11/09 03:34:07;;;;;;;25.90;3.63;;;;;;;;;;4943277;28;20034;-83
2022/11/09 03:36:33;;;;;;;13.85;2.20;;;;;;;;;;4974135;28;20041;-83
2022/11/09 03:39:01;;;;;;;17.58;1.80;;;;;;;;;;4915102;28;21254;-78
2022/11/09 03:41:27;;;;;;;15.00;2.42;;;;;;;;;;4887569;28;20046;-78
2022/11/09 03:43:55;;;;;;;18.30;2.92;;;;;;;;;;4924591;28;20030;-77
2022/11/09 03:46:21;;;;;;;21.60;3.25;;;;;;;;;;4885218;28;20030;-79
2022/11/09 03:48:48;;;;;;;17.27;2.28;;;;;;;;;;4887459;28;20072;-78
2022/11/09 03:51:28;;;;;;;21.75;2.72;;;;;;;;;;4877646;28;20047;-77
2022/11/09 03:54:05;;;;;;;13.50;1.90;;;;;;;;;;4888687;28;20050;-78
2022/11/09 03:56:37;;;;;;;15.18;2.20;;;;;;;;;;4917686;28;20085;-77
2022/11/09 03:59:02;;;;;;;16.98;2.70;;;;;;;;;;4925573;28;20106;-77
2022/11/09 04:01:28;;;;;;;16.75;2.35;;;;;;;;;;4910386;28;20269;-77
2022/11/09 04:03:56;;;;;;;23.98;3.50;;;;;;;;;;4921192;28;20042;-77
2022/11/09 04:06:24;;;;;;;20.92;4.32;;;;;;;;;;4908268;28;20026;-75
2022/11/09 04:08:55;;;;;;;28.35;3.95;;;;;;;;;;4964920;28;20137;-78
2022/11/09 04:11:24;;;;;;;29.60;5.10;;;;;;;;;;4979718;28;20056;-78
2022/11/09 04:13:50;;;;;;;24.67;2.95;;;;;;;;;;4989128;28;20044;-80
2022/11/09 04:16:15;;;;;;;28.35;4.07;;;;;;;;;;4963322;28;20042;-78
2022/11/09 04:18:47;;;;;;;25.48;3.78;;;;;;;;;;4998717;28;20039;-81
2022/11/09 04:21:15;;;;;;;34.70;4.53;;;;;;;;;;4956785;28;20026;-81
2022/11/09 04:23:44;;;;;;;33.85;6.00;;;;;;;;;;4968991;28;20031;-81
2022/11/09 04:26:15;;;;;;;29.00;4.88;;;;;;;;;;4967440;28;20026;-81
2022/11/09 04:28:47;;;;;;;29.15;4.85;;;;;;;;;;4988800;28;20046;-78
2022/11/09 04:31:16;;;;;;;24.17;4.05;;;;;;;;;;4971721;28;20034;-81
2022/11/09 04:33:42;;;;;;;19.48;3.30;;;;;;;;;;4992306;28;20554;-79
2022/11/09 04:36:13;;;;;;;24.08;3.45;;;;;;;;;;4955291;28;20062;-82
2022/11/09 04:38:39;;;;;;;27.98;3.53;;;;;;;;;;4938668;28;20052;-80
2022/11/09 04:41:08;;;;;;;27.35;4.32;;;;;;;;;;4943352;28;20520;-81
2022/11/09 04:43:33;;;;;;;21.00;3.15;;;;;;;;;;4933425;28;20511;-81
2022/11/09 04:46:12;;;;;;;28.10;3.95;;;;;;;;;;4958536;28;20507;-83
2022/11/09 04:48:40;;;;;;;31.20;4.40;;;;;;;;;;4975024;28;20038;-80
2022/11/09 04:51:07;;;;;;;22.65;3.70;;;;;;;;;;4988000;28;20438;-81
2022/11/09 04:53:37;;;;;;;24.27;3.63;;;;;;;;;;4961042;28;20064;-82
2022/11/09 04:56:03;;;;;;;24.90;3.75;;;;;;;;;;4975704;28;20531;-83
2022/11/09 04:58:29;;;;;;;20.85;3.53;;;;;;;;;;4964660;28;20026;-83
2022/11/09 05:01:15;;;;;;;18.60;3.72;;;;;;;;;;4949731;28;20038;-81
2022/11/09 05:03:56;;;;;;;19.90;3.20;;;;;;;;;;4951364;28;20038;-81
2022/11/09 05:06:34;;;;;;;16.42;3.15;;;;;;;;;;4979046;28;20483;-81
2022/11/09 05:09:01;;;;;;;23.48;3.20;;;;;;;;;;4960442;28;20526;-77
2022/11/09 05:11:31;;;;;;;19.92;3.47;;;;;;;;;;4959191;28;20127;-81
2022/11/09 05:13:57;;;;;;;21.05;6.40;;;;;;;;;;4963214;28;20041;-77
2022/11/09 05:16:27;;;;;;;21.23;5.82;;;;;;;;;;4908202;28;20034;-77
2022/11/09 05:18:58;;;;;;;27.13;9.02;;;;;;;;;;4942297;28;20632;-77
2022/11/09 05:21:53;;;;;;;28.95;9.35;;;;;;;;;;4859228;28;21584;-77
2022/11/09 05:24:23;;;;;;;21.10;6.90;;;;;;;;;;4905998;28;20027;-81
2022/11/09 05:26:57;;;;;;;26.05;6.70;;;;;;;;;;4915871;28;20118;-81
2022/11/09 05:29:25;;;;;;;32.90;7.57;;;;;;;;;;4955948;28;20462;-80
2022/11/09 05:32:10;;;;;;;32.27;6.20;;;;;;;;;;4937103;28;20543;-81
2022/11/09 05:34:38;;;;;;;;;;;;;;;;;;4901087;28;20578;-81
2022/11/09 05:37:30;;;;;;;20.52;4.88;;;;;;;;;;4971316;28;19914;-82
2022/11/09 05:40:09;;;;;;;;;;;;;;;;;;;;;
2022/11/09 05:42:44;;;;;;;19.60;6.35;;;;;;;;;;4872359;28;20607;-76
2022/11/09 05:45:33;;;;;;;18.15;6.30;;;;;;;;;;4895376;28;20144;-76
2022/11/09 05:48:05;;;;;;;15.63;6.13;;;;;;;;;;4941646;28;20224;-76
2022/11/09 05:50:40;;;;;;;21.05;4.97;;;;;;;;;;4942767;28;20357;-76
2022/11/09 05:53:12;;;;;;;20.45;5.97;;;;;;;;;;4947042;28;20596;-76
2022/11/09 05:55:43;;;;;;;24.67;5.25;;;;;;;;;;4918110;28;20486;-76
2022/11/09 05:58:12;;;;;;;34.92;8.30;;;;;;;;;;4926264;28;20814;-76
2022/11/09 06:00:38;;;;;;;23.15;5.68;;;;;;;;;;4943783;28;20145;-77
2022/11/09 06:03:08;;;;;;;21.42;6.95;;;;;;;;;;4942819;28;20076;-76
2022/11/09 06:05:46;;;;;;;26.05;14.55;;;;;;;;;;4932787;28;20959;-77
2022/11/09 06:08:16;;;;;;;21.90;6.13;;;;;;;;;;4906621;28;20565;-76
2022/11/09 06:10:48;;;;;;;21.88;6.20;;;;;;;;;;4921207;28;20879;-76
2022/11/09 06:13:23;;;;;;;23.10;5.45;;;;;;;;;;4915741;28;20638;-77
2022/11/09 06:16:17;;;;;;;25.33;6.03;;;;;;;;;;4937201;28;20483;-76
2022/11/09 06:19:12;;;;;;;24.92;5.95;;;;;;;;;;4881731;28;20134;-75
2022/11/09 06:24:49;;;;;;;22.88;6.90;;;;;;;;;;4936570;28;20052;-79
2022/11/09 06:27:20;;;;;;;20.35;4.82;;;;;;;;;;4938736;28;20100;-81
2022/11/09 06:29:53;;;;;;;22.02;4.57;;;;;;;;;;4923273;28;20058;-81
2022/11/09 06:32:19;;;;;;;32.60;5.07;;;;;;;;;;4921292;28;20035;-81
2022/11/09 06:34:48;;;;;;;19.25;5.05;;;;;;;;;;4908459;28;20065;-80
2022/11/09 06:37:19;;;;;;;20.85;4.97;;;;;;;;;;4908332;28;20038;-81
2022/11/09 06:39:48;;;;;;;28.33;6.20;;;;;;;;;;4911947;28;20405;-79
2022/11/09 06:42:17;;;;;;;19.33;6.13;;;;;;;;;;4951408;28;20034;-81
2022/11/09 06:44:45;;;;;;;21.70;5.18;;;;;;;;;;4911260;28;20499;-80
2022/11/09 06:47:11;;;;;;;22.33;5.07;;;;;;;;;;4963816;28;20492;-82
2022/11/09 06:49:37;;;;;;;18.35;4.57;;;;;;;;;;4946103;28;20092;-80
2022/11/09 06:52:05;;;;;;;20.20;5.00;;;;;;;;;;4943921;28;20422;-80
2022/11/09 06:54:35;;;;;;;18.17;4.20;;;;;;;;;;4955144;28;20815;-79
2022/11/09 06:57:20;;;;;;;17.55;5.18;;;;;;;;;;4924337;28;20033;-81
2022/11/09 06:59:48;;;;;;;17.58;5.25;;;;;;;;;;4906244;28;20035;-81
2022/11/09 07:02:16;;;;;;;16.70;5.07;;;;;;;;;;4939974;28;20454;-79
2022/11/09 07:04:42;;;;;;;23.90;5.80;;;;;;;;;;4942044;28;20034;-80
2022/11/09 07:07:10;;;;;;;29.75;6.45;;;;;;;;;;4947332;28;20120;-81
2022/11/09 07:09:36;;;;;;;21.88;6.50;;;;;;;;;;4887331;28;20057;-79
2022/11/09 07:12:09;;;;;;;19.45;5.57;;;;;;;;;;4901008;28;20046;-79
2022/11/09 07:14:39;;;;;;;22.27;6.47;;;;;;;;;;4909311;28;20591;-81
2022/11/09 07:17:18;;;;;;;16.92;3.92;;;;;;;;;;4883579;28;20547;-81
2022/11/09 07:19:46;;;;;;;22.60;5.97;;;;;;;;;;4886767;28;20812;-81
2022/11/09 07:22:15;;;;;;;25.05;5.07;;;;;;;;;;4929232;28;20046;-79
2022/11/09 07:24:41;;;;;;;19.75;5.10;;;;;;;;;;4939189;28;20086;-79
2022/11/09 07:27:06;;;;;;;21.35;4.15;;;;;;;;;;4912131;28;20768;-81
2022/11/09 07:29:34;;;;;;;20.15;5.07;;;;;;;;;;4929020;28;20223;-81
2022/11/09 07:32:07;;;;;;;19.40;4.35;;;;;;;;;;4923975;28;20038;-81
2022/11/09 07:34:35;;;;;;;19.25;5.22;;;;;;;;;;4930166;28;20049;-80
2022/11/09 07:37:01;;;;;;;24.20;6.70;;;;;;;;;;4940428;28;20048;-75
2022/11/09 07:39:26;;;;;;;22.35;5.28;;;;;;;;;;4922992;28;22397;-75
2022/11/09 07:41:55;;;;;;;24.55;5.90;;;;;;;;;;4933960;28;20030;-75
2022/11/09 07:44:21;;;;;;;19.65;4.53;;;;;;;;;;4944120;28;20569;-75
2022/11/09 07:46:47;;;;;;;17.33;4.80;;;;;;;;;;4922861;28;20034;-75
2022/11/09 07:49:13;;;;;;;21.83;4.78;;;;;;;;;;4946135;28;20038;-75
2022/11/09 07:51:39;;;;;;;22.50;5.55;;;;;;;;;;4921448;28;20565;-75
2022/11/09 07:54:07;;;;;;;25.40;5.40;;;;;;;;;;4917220;28;20589;-75
2022/11/09 07:56:32;;;;;;;26.35;5.78;;;;;;;;;;4931275;28;20034;-75
2022/11/09 07:58:58;;;;;;;26.08;6.18;;;;;;;;;;4926287;28;20303;-74
2022/11/09 08:01:24;;;;;;;21.15;4.70;;;;;;;;;;4918090;28;20314;-74
2022/11/09 08:03:52;;;;;;;23.75;5.97;;;;;;;;;;4906252;28;20034;-75
2022/11/09 08:06:21;;;;;;;27.92;5.95;;;;;;;;;;4950141;28;20034;-78
2022/11/09 08:08:48;;;;;;;25.10;5.93;;;;;;;;;;4959936;28;20054;-80
2022/11/09 08:11:14;;;;;;;26.20;5.57;;;;;;;;;;4945505;28;20034;-80
2022/11/09 08:13:40;;;;;;;28.33;5.50;;;;;;;;;;4929570;28;20608;-76
2022/11/09 08:16:07;;;;;;;30.75;6.53;;;;;;;;;;4930324;28;20429;-76
2022/11/09 08:18:33;;;;;;;26.20;6.82;;;;;;;;;;4943638;28;20537;-75
2022/11/09 08:21:02;;;;;;;32.60;6.00;;;;;;;;;;4939226;28;20030;-76
2022/11/09 08:23:32;;;;;;;29.27;6.80;;;;;;;;;;4913416;28;20065;-76
2022/11/09 08:26:01;;;;;;;24.80;5.72;;;;;;;;;;4875659;28;20286;-75
2022/11/09 08:28:29;;;;;;;28.52;7.18;;;;;;;;;;4891966;28;20055;-76
2022/11/09 08:31:02;;;;;;;21.80;5.63;;;;;;;;;;4927126;28;20347;-75
2022/11/09 08:33:32;;;;;;;22.02;5.80;;;;;;;;;;4883582;28;20421;-74
2022/11/09 08:35:57;;;;;;;24.48;6.07;;;;;;;;;;4899887;28;20486;-76
2022/11/09 08:38:26;;;;;;;22.25;5.95;;;;;;;;;;4888243;28;20030;-76
2022/11/09 08:40:56;;;;;;;18.15;6.30;;;;;;;;;;4922304;28;20034;-75
2022/11/09 08:43:22;;;;;;;20.33;4.72;;;;;;;;;;4928642;28;20046;-74
2022/11/09 08:45:53;;;;;;;21.08;4.22;;;;;;;;;;4909991;28;20537;-76
2022/11/09 08:48:28;;;;;;;17.45;4.07;;;;;;;;;;4929998;28;20066;-76
2022/11/09 08:51:10;;;;;;;20.05;6.35;;;;;;;;;;4874491;28;20351;-76
2022/11/09 08:53:39;;;;;;;12.27;2.92;;;;;;;;;;4852903;28;20059;-75
2022/11/09 08:56:08;;;;;;;23.23;5.03;;;;;;;;;;4851824;28;21915;-75
2022/11/09 08:58:37;;;;;;;31.50;8.50;;;;;;;;;;4876061;28;20983;-76
2022/11/09 09:01:11;;;;;;;27.05;4.80;;;;;;;;;;4827942;29;20515;-75
2022/11/09 09:03:43;;;;;;;24.23;4.90;;;;;;;;;;4852351;28;20262;-75
2022/11/09 09:06:12;;;;;;;19.42;5.35;;;;;;;;;;4876503;28;20592;-74
2022/11/09 09:08:44;;;;;;;27.05;6.00;;;;;;;;;;4865740;28;20050;-73
2022/11/09 09:11:22;;;;;;;23.95;6.38;;;;;;;;;;4902084;28;20039;-75
2022/11/09 09:13:50;;;;;;;16.60;3.97;;;;;;;;;;4886442;28;20123;-75
2022/11/09 09:16:18;;;;;;;22.80;4.95;;;;;;;;;;4906138;28;21555;-75
2022/11/09 09:18:46;;;;;;;18.15;4.43;;;;;;;;;;4911633;28;20035;-74
2022/11/09 09:21:17;;;;;;;21.73;3.90;;;;;;;;;;4907533;28;20042;-74
2022/11/09 09:24:00;;;;;;;21.67;5.10;;;;;;;;;;4847614;29;20059;-74
2022/11/09 09:26:38;;;;;;;17.40;4.80;;;;;;;;;;4862310;29;20458;-74
2022/11/09 09:29:04;;;;;;;20.83;4.75;;;;;;;;;;4872150;29;20081;-76
2022/11/09 09:31:33;;;;;;;17.63;4.78;;;;;;;;;;4862947;29;20036;-78
2022/11/09 09:34:04;;;;;;;19.65;5.50;;;;;;;;;;4863672;29;20103;-75
2022/11/09 09:36:41;;;;;;;20.90;4.47;;;;;;;;;;4840375;29;20044;-76
2022/11/09 09:39:09;;;;;;;23.30;4.95;;;;;;;;;;4867204;29;20036;-76
2022/11/09 09:41:41;;;;;;;19.48;5.25;;;;;;;;;;4860770;29;20059;-76
2022/11/09 09:44:27;;;;;;;21.40;5.25;;;;;;;;;;4850995;29;20565;-75
2022/11/09 09:47:13;;;;;;;17.60;3.63;;;;;;;;;;4841618;29;20036;-75
2022/11/09 09:49:48;;;;;;;23.45;5.03;;;;;;;;;;4864493;29;20038;-75
2022/11/09 09:52:17;;;;;;;22.02;5.75;;;;;;;;;;4865019;29;20468;-76
2022/11/09 09:54:58;;;;;;;21.85;5.53;;;;;;;;;;4877561;28;20054;-76
2022/11/09 09:57:25;;;;;;;22.83;5.80;;;;;;;;;;4930831;28;20034;-75
2022/11/09 09:59:51;;;;;;;23.23;4.47;;;;;;;;;;4939560;28;20125;-75
2022/11/09 10:02:22;;;;;;;19.90;4.75;;;;;;;;;;4904765;28;20352;-76
2022/11/09 10:04:49;;;;;;;19.98;3.90;;;;;;;;;;4907241;28;20810;-75
2022/11/09 10:07:22;;;;;;;19.23;3.25;;;;;;;;;;4943025;28;20536;-75
2022/11/09 10:09:56;;;;;;;21.02;2.85;;;;;;;;;;4956385;28;20305;-75
2022/11/09 10:12:40;;;;;;;16.23;2.40;;;;;;;;;;4960327;28;20183;-75
2022/11/09 10:15:27;;;;;;;19.92;2.40;;;;;;;;;;4930076;28;20112;-76
2022/11/09 10:18:12;;;;;;;17.30;2.20;;;;;;;;;;4928299;28;20049;-76
2022/11/09 10:20:49;;;;;;;14.05;1.92;;;;;;;;;;4963671;28;20425;-85
2022/11/09 10:23:39;;;;;;;19.83;2.33;;;;;;;;;;4944751;28;20078;-79
2022/11/09 10:26:22;;;;;;;26.80;3.47;;;;;;;;;;4940792;28;20168;-80
2022/11/09 10:28:59;;;;;;;23.35;3.40;;;;;;;;;;4958468;28;20041;-81
2022/11/09 10:31:29;;;;;;;23.33;3.97;;;;;;;;;;4928864;28;20034;-82
2022/11/09 10:33:57;;;;;;;30.88;3.92;;;;;;;;;;4931627;28;20216;-81
2022/11/09 10:36:28;;;;;;;17.67;1.92;;;;;;;;;;4945141;28;20478;-86
2022/11/09 10:38:57;;;;;;;11.35;1.80;;;;;;;;;;4962370;28;20037;-82
2022/11/09 10:41:27;;;;;;;15.43;2.00;;;;;;;;;;4954227;28;20040;-81
2022/11/09 10:43:55;;;;;;;18.42;2.33;;;;;;;;;;4972704;28;20050;-82
2022/11/09 10:46:23;;;;;;;26.40;3.22;;;;;;;;;;4952916;28;21544;-83
2022/11/09 10:48:52;;;;;;;21.15;2.65;;;;;;;;;;4946085;28;20056;-81
2022/11/09 10:51:36;;;;;;;15.35;1.80;;;;;;;;;;4946411;28;20041;-82
2022/11/09 10:54:22;;;;;;;13.05;1.80;;;;;;;;;;4938613;28;20038;-81
2022/11/09 10:57:06;;;;;;;26.73;4.53;;;;;;;;;;4916476;28;20033;-78
2022/11/09 10:59:41;;;;;;;25.30;2.70;;;;;;;;;;4925505;28;21938;-78
2022/11/09 11:02:25;;;;;;;26.73;3.83;;;;;;;;;;4950014;28;20594;-79
2022/11/09 11:05:25;;;;;;;24.38;3.53;;;;;;;;;;4959058;28;20038;-78
2022/11/09 11:07:54;;;;;;;23.88;4.13;;;;;;;;;;4962936;28;20046;-78
2022/11/09 11:10:20;;;;;;;36.15;3.88;;;;;;;;;;4948798;28;20085;-77
2022/11/09 11:13:00;;;;;;;45.03;6.15;;;;;;;;;;4954205;28;20560;-76
2022/11/09 11:15:36;;;;;;;39.45;4.70;;;;;;;;;;4965319;28;20120;-77
2022/11/09 11:18:03;;;;;;;25.35;4.25;;;;;;;;;;4960114;28;20144;-76
2022/11/09 11:20:33;;;;;;;28.73;6.25;;;;;;;;;;4981538;28;20121;-82
2022/11/09 11:23:08;;;;;;;22.92;3.60;;;;;;;;;;4972588;28;20030;-83
2022/11/09 11:25:37;;;;;;;32.83;3.80;;;;;;;;;;4959310;28;20132;-83
2022/11/09 11:28:38;;;;;;;24.42;4.35;;;;;;;;;;4953771;28;20046;-84
2022/11/09 11:31:06;;;;;;;26.92;4.45;;;;;;;;;;4827047;29;20601;-83
2022/11/09 11:33:33;;;;;;;32.88;4.90;;;;;;;;;;4926414;28;20042;-85
2022/11/09 11:36:27;;;;;;;32.83;4.35;;;;;;;;;;4937614;28;20038;-82
2022/11/09 11:39:04;;;;;;;26.25;4.68;;;;;;;;;;4943607;28;20404;-80
2022/11/09 11:41:48;;;;;;;27.10;4.53;;;;;;;;;;4946170;28;20059;-80
2022/11/09 11:44:37;;;;;;;26.45;3.90;;;;;;;;;;4915383;28;20506;-83
2022/11/09 11:47:06;;;;;;;24.73;4.05;;;;;;;;;;4924729;28;21025;-82
2022/11/09 11:49:42;;;;;;;16.55;3.65;;;;;;;;;;4915742;28;20090;-82
2022/11/09 11:52:10;;;;;;;26.35;4.60;;;;;;;;;;4892225;28;20382;-84
2022/11/09 11:54:42;;;;;;;18.27;4.05;;;;;;;;;;4939949;28;20049;-77
2022/11/09 11:57:29;;;;;;;14.57;3.15;;;;;;;;;;4925013;28;20462;-76
2022/11/09 12:00:03;;;;;;;20.30;3.38;;;;;;;;;;4943371;28;20034;-76
2022/11/09 12:02:48;;;;;;;23.90;3.88;;;;;;;;;;4936150;28;20470;-75
2022/11/09 12:05:28;;;;;;;16.92;2.67;;;;;;;;;;4948866;28;20587;-76
2022/11/09 12:08:01;;;;;;;15.75;2.50;;;;;;;;;;4962762;28;20037;-76
2022/11/09 12:10:35;;;;;;;24.08;3.35;;;;;;;;;;4963461;28;20610;-77
2022/11/09 12:13:08;;;;;;;14.30;2.97;;;;;;;;;;4935601;28;20034;-84
2022/11/09 12:15:46;;;;;;;17.65;3.10;;;;;;;;;;4977394;28;20038;-85
2022/11/09 12:18:42;;;;;;;16.65;3.20;;;;;;;;;;4899555;28;20698;-84
2022/11/09 12:21:14;;;;;;;22.80;3.97;;;;;;;;;;4928718;28;20042;-83
2022/11/09 12:23:42;;;;;;;22.10;4.40;;;;;;;;;;4952854;28;20620;-83
2022/11/09 12:26:14;;;;;;;21.38;3.35;;;;;;;;;;4985038;28;20053;-78
2022/11/09 12:28:57;;;;;;;15.70;2.90;;;;;;;;;;4981143;28;20042;-79
2022/11/09 12:31:32;;;;;;;16.50;2.60;;;;;;;;;;4990892;28;20524;-86
2022/11/09 12:34:13;;;;;;;14.77;2.80;;;;;;;;;;4969319;28;20054;-82
2022/11/09 12:36:44;;;;;;;13.63;2.50;;;;;;;;;;4946384;28;20033;-85
2022/11/09 12:39:21;;;;;;;18.20;3.60;;;;;;;;;;4965014;28;20034;-82
2022/11/09 12:41:47;;;;;;;21.38;3.75;;;;;;;;;;4959604;28;20057;-85
2022/11/09 12:44:27;;;;;;;21.80;3.70;;;;;;;;;;4951718;28;20042;-90
2022/11/09 12:47:01;;;;;;;18.77;3.72;;;;;;;;;;4982692;28;20302;-86
2022/11/09 12:49:27;;;;;;;26.10;3.85;;;;;;;;;;4942781;28;20576;-82
2022/11/09 12:51:55;;;;;;;29.65;5.13;;;;;;;;;;4968676;28;20045;-83
2022/11/09 12:54:20;;;;;;;30.48;5.32;;;;;;;;;;4958574;28;20263;-82
2022/11/09 12:56:52;;;;;;;28.58;4.00;;;;;;;;;;4958786;28;20037;-80
2022/11/09 12:59:21;;;;;;;18.02;4.28;;;;;;;;;;4971125;28;20143;-81
2022/11/09 13:01:52;;;;;;;34.75;5.30;;;;;;;;;;4981255;28;20036;-86
2022/11/09 13:04:18;;;;;;;40.53;4.90;;;;;;;;;;4944448;28;20036;-87
2022/11/09 13:07:07;;;;;;;38.92;6.43;;;;;;;;;;4974686;28;20084;-85
2022/11/09 13:09:39;;;;;;;30.52;3.90;;;;;;;;;;4966767;28;20545;-86
2022/11/09 13:12:19;;;;;;;33.33;4.82;;;;;;;;;;4920668;28;20499;-88
2022/11/09 13:14:47;;;;;;;37.53;5.22;;;;;;;;;;4962826;28;20153;-88
2022/11/09 13:17:23;;;;;;;36.42;5.63;;;;;;;;;;4963826;28;20088;-82
2022/11/09 13:19:55;;;;;;;36.40;5.82;;;;;;;;;;4930675;28;20719;-86
2022/11/09 13:22:21;;;;;;;38.90;4.75;;;;;;;;;;4945739;28;20129;-88
2022/11/09 13:24:55;;;;;;;20.33;2.78;;;;;;;;;;4957678;28;20037;-86
2022/11/09 13:27:32;;;;;;;31.27;3.78;;;;;;;;;;4957919;28;20064;-86
2022/11/09 13:30:24;;;;;;;14.50;2.13;;;;;;;;;;4945136;28;20275;-85
2022/11/09 13:33:08;;;;;;;20.52;2.65;;;;;;;;;;4929473;28;20038;-88
2022/11/09 13:35:43;;;;;;;19.13;2.80;;;;;;;;;;4935182;28;20300;-83
2022/11/09 13:38:18;;;;;;;20.02;3.08;;;;;;;;;;4949303;28;20092;-78
2022/11/09 13:40:43;;;;;;;18.55;2.60;;;;;;;;;;4941039;28;20539;-81
2022/11/09 13:43:09;;;;;;;25.00;4.03;;;;;;;;;;4973709;28;20033;-81
2022/11/09 13:45:41;;;;;;;25.02;3.78;;;;;;;;;;4971399;28;20068;-83
2022/11/09 13:48:22;;;;;;;20.80;2.55;;;;;;;;;;4980074;28;20501;-83
2022/11/09 13:50:56;;;;;;;29.95;3.55;;;;;;;;;;4963747;28;20308;-80
2022/11/09 13:53:44;;;;;;;27.20;3.38;;;;;;;;;;4936430;28;20349;-80
2022/11/09 13:56:31;;;;;;;19.70;3.63;;;;;;;;;;4943954;28;20284;-77
2022/11/09 13:59:10;;;;;;;23.73;3.40;;;;;;;;;;4936866;28;20040;-75
2022/11/09 14:01:52;;;;;;;22.80;3.33;;;;;;;;;;4935770;28;20169;-79
2022/11/09 14:04:23;;;;;;;31.25;4.28;;;;;;;;;;4943398;28;20787;-78
2022/11/09 14:06:55;;;;;;;24.77;3.45;;;;;;;;;;4944442;28;20042;-81
2022/11/09 14:09:24;;;;;;;24.98;3.30;;;;;;;;;;4920693;28;20549;-79
2022/11/09 14:12:00;;;;;;;18.92;2.65;;;;;;;;;;4942193;28;20049;-78
2022/11/09 14:14:29;;;;;;;23.02;3.83;;;;;;;;;;4977381;28;20478;-75
2022/11/09 14:17:09;;;;;;;21.05;2.80;;;;;;;;;;4963267;28;20139;-73
2022/11/09 14:19:40;;;;;;;30.33;4.35;;;;;;;;;;4924426;28;20119;-75
2022/11/09 14:22:17;;;;;;;29.17;3.83;;;;;;;;;;4936724;28;20048;-76
2022/11/09 14:24:43;;;;;;;30.83;3.58;;;;;;;;;;4966210;28;20506;-74
2022/11/09 14:27:08;;;;;;;29.10;3.92;;;;;;;;;;4965295;28;20063;-75
2022/11/09 14:29:36;;;;;;;22.55;3.80;;;;;;;;;;4961514;28;20069;-75
2022/11/09 14:32:17;;;;;;;23.15;3.45;;;;;;;;;;4928703;28;20210;-75
2022/11/09 14:34:43;;;;;;;30.55;3.90;;;;;;;;;;4961179;28;20390;-75
2022/11/09 14:37:15;;;;;;;24.88;4.05;;;;;;;;;;4961268;28;22442;-76
2022/11/09 14:39:43;;;;;;;;;;;;;;;;;;4928357;28;20034;-76
2022/11/09 14:42:12;;;;;;;30.58;3.60;;;;;;;;;;4956782;28;19917;-76
2022/11/09 14:44:41;;;;;;;33.72;3.83;;;;;;;;;;4959524;28;20188;-77
2022/11/09 14:47:21;;;;;;;31.67;3.67;;;;;;;;;;4940429;28;20434;-76
2022/11/09 14:49:48;;;;;;;29.98;3.40;;;;;;;;;;4950884;28;20645;-75
2022/11/09 14:52:27;;;;;;;22.92;3.10;;;;;;;;;;4944390;28;20042;-76
2022/11/09 14:55:03;;;;;;;30.80;3.47;;;;;;;;;;4913688;28;20046;-76
2022/11/09 14:57:32;;;;;;;24.02;3.65;;;;;;;;;;4899029;28;20606;-76
2022/11/09 15:00:07;;;;;;;24.35;3.05;;;;;;;;;;4957834;28;20413;-79
2022/11/09 15:02:39;;;;;;;27.70;3.05;;;;;;;;;;4947228;28;20102;-81
2022/11/09 15:05:26;;;;;;;22.50;3.03;;;;;;;;;;4930121;28;20057;-79
2022/11/09 15:07:51;;;;;;;23.45;3.92;;;;;;;;;;4953058;28;20170;-80